Time;durP1;ratioP1;P1;durP2;ratioP2;P2;SDS_P1;SDS_P2;PMS_P1;PMS_P2;Temp;Humidity;BMP_temperature;BMP_pressure;BME280_temperature;BME280_humidity;BME280_pressure;Samples;Min_cycle;Max_cycle;Signal;HPM_P1;HPM_P2
2023/01/07 00:00:33;;;;;;;51.55;29.77;;;4.50;99.90;;;;;;4894532;29;20407;-89
2023/01/07 00:06:46;;;;;;;55.33;32.27;;;4.40;99.90;;;;;;4864124;29;20526;-88
2023/01/07 00:10:09;;;;;;;57.60;31.25;;;4.30;99.90;;;;;;4969240;28;20394;-90
2023/01/07 04:43:30;;;;;;;;;;;;;;;;;;;;;
2023/01/07 04:49:44;;;;;;;;;;;;;;;;;;;;;
2023/01/07 04:52:44;;;;;;;49.30;24.80;;;6.60;99.90;;;;;;5049793;28;20403;-87
2023/01/07 04:55:39;;;;;;;;;;;;;;;;;;;;;
2023/01/07 04:59:02;;;;;;;;;;;;;;;;;;;;;
2023/01/07 06:55:23;;;;;;;50.22;25.20;;;7.90;99.90;;;;;;5653849;22;13526395;-84
2023/01/07 06:57:49;;;;;;;52.92;26.30;;;7.90;99.90;;;;;;6211629;23;20661;-85
2023/01/07 07:00:17;;;;;;;59.77;28.13;;;8.00;99.90;;;;;;6213246;23;20349;-85
2023/01/07 07:02:46;;;;;;;65.78;30.70;;;7.90;99.90;;;;;;6210642;23;20369;-84
2023/01/07 07:05:14;;;;;;;65.40;30.77;;;7.70;99.90;;;;;;6213297;23;20712;-85
2023/01/07 07:07:40;;;;;;;58.53;28.48;;;7.60;99.90;;;;;;6214211;23;20374;-85
2023/01/07 07:10:07;;;;;;;58.25;30.15;;;7.50;99.90;;;;;;6209073;23;20366;-85
2023/01/07 07:12:34;;;;;;;74.10;32.72;;;7.50;99.90;;;;;;6210948;23;20357;-85
2023/01/07 07:15:00;;;;;;;56.03;28.30;;;7.70;99.90;;;;;;6212215;23;20882;-85
2023/01/07 07:17:26;;;;;;;47.03;26.08;;;7.70;99.90;;;;;;6210895;23;20445;-85
2023/01/07 07:19:52;;;;;;;58.77;29.13;;;7.80;99.90;;;;;;6214086;23;20349;-85
2023/01/07 07:22:32;;;;;;;43.93;24.70;;;7.80;99.90;;;;;;6214520;23;20492;-85
2023/01/07 07:24:58;;;;;;;51.00;26.53;;;7.90;99.90;;;;;;6224371;23;20409;-86
2023/01/07 07:27:24;;;;;;;47.78;26.45;;;7.90;99.90;;;;;;6218580;23;20373;-87
2023/01/07 07:29:50;;;;;;;51.88;26.20;;;7.80;99.90;;;;;;6218211;23;20354;-85
2023/01/07 07:32:15;;;;;;;47.47;25.77;;;7.90;99.90;;;;;;6213734;23;20425;-84
2023/01/07 07:34:41;;;;;;;47.03;26.00;;;8.00;99.90;;;;;;6216186;23;20352;-84
2023/01/07 07:37:07;;;;;;;46.55;25.02;;;8.00;99.90;;;;;;6212697;23;20366;-83
2023/01/07 07:39:33;;;;;;;39.80;23.60;;;8.10;99.90;;;;;;6211493;23;20365;-85
2023/01/07 07:42:16;;;;;;;40.17;23.80;;;8.10;99.90;;;;;;6205611;23;20358;-84
2023/01/07 07:44:42;;;;;;;35.10;21.95;;;8.20;99.90;;;;;;6209326;23;20388;-84
2023/01/07 07:47:11;;;;;;;32.33;20.98;;;8.20;99.90;;;;;;6207815;23;20377;-85
2023/01/07 07:49:42;;;;;;;33.58;20.27;;;8.30;99.90;;;;;;6208458;23;20361;-85
2023/01/07 07:52:08;;;;;;;33.78;20.60;;;8.30;99.90;;;;;;6209063;23;20492;-86
2023/01/07 07:54:34;;;;;;;25.35;17.88;;;8.30;99.90;;;;;;6213764;23;20390;-84
2023/01/07 07:57:00;;;;;;;34.63;19.88;;;8.40;99.90;;;;;;6212107;23;20382;-86
2023/01/07 07:59:26;;;;;;;29.23;18.63;;;8.40;99.90;;;;;;6212252;23;20361;-84
2023/01/07 08:01:51;;;;;;;33.40;19.38;;;8.40;99.90;;;;;;6210518;23;20346;-84
2023/01/07 08:04:17;;;;;;;35.72;19.27;;;8.30;99.90;;;;;;6209616;23;20728;-84
2023/01/07 08:06:43;;;;;;;30.05;19.00;;;8.40;99.90;;;;;;6210753;23;20370;-84
2023/01/07 08:09:09;;;;;;;32.92;19.85;;;8.40;99.90;;;;;;6212392;23;20739;-84
2023/01/07 08:11:34;;;;;;;30.70;19.63;;;8.30;99.90;;;;;;6212309;23;20678;-84
2023/01/07 08:14:00;;;;;;;29.00;18.80;;;8.40;99.90;;;;;;6211999;23;20559;-85
2023/01/07 08:16:26;;;;;;;27.88;18.50;;;8.60;99.90;;;;;;6213379;23;20350;-86
2023/01/07 08:18:52;;;;;;;25.73;16.50;;;8.50;99.90;;;;;;6209121;23;20828;-88
2023/01/07 08:21:17;;;;;;;26.47;17.70;;;8.70;99.90;;;;;;6211288;23;20412;-86
2023/01/07 08:23:43;;;;;;;26.07;16.83;;;8.70;99.90;;;;;;6211615;23;20373;-87
2023/01/07 08:26:09;;;;;;;20.65;15.18;;;8.70;99.90;;;;;;6208889;23;20380;-86
2023/01/07 08:28:38;;;;;;;25.60;16.50;;;8.80;99.90;;;;;;6210540;23;20358;-86
2023/01/07 08:31:05;;;;;;;20.50;14.88;;;8.80;99.90;;;;;;6211491;23;20369;-85
2023/01/07 08:33:36;;;;;;;20.58;14.57;;;8.90;99.90;;;;;;6210364;23;20361;-86
2023/01/07 08:36:03;;;;;;;16.37;13.67;;;9.00;99.90;;;;;;6212043;23;20354;-87
2023/01/07 08:38:30;;;;;;;19.35;14.45;;;9.00;99.90;;;;;;6210915;23;20349;-86
2023/01/07 08:40:56;;;;;;;17.25;13.13;;;9.00;99.90;;;;;;6210819;23;20350;-86
2023/01/07 08:43:25;;;;;;;18.23;13.20;;;9.10;99.90;;;;;;6210849;23;20361;-87
2023/01/07 08:45:51;;;;;;;20.13;13.45;;;9.10;99.90;;;;;;6212261;23;20405;-86
2023/01/07 08:48:17;;;;;;;16.08;12.63;;;9.10;99.90;;;;;;6211965;23;20346;-88
2023/01/07 08:50:47;;;;;;;17.70;13.23;;;9.20;99.90;;;;;;6214327;23;20457;-84
2023/01/07 08:53:13;;;;;;;14.07;11.98;;;9.10;99.90;;;;;;6216519;23;20358;-87
2023/01/07 08:55:39;;;;;;;15.52;12.07;;;9.10;99.90;;;;;;6220037;23;20361;-88
2023/01/07 08:58:04;;;;;;;14.60;11.60;;;9.20;99.90;;;;;;6218523;23;20365;-89
2023/01/07 09:00:30;;;;;;;13.83;10.83;;;9.40;99.90;;;;;;6219651;23;20404;-92
2023/01/07 09:02:56;;;;;;;12.77;9.73;;;9.60;99.90;;;;;;6215305;23;20353;-87
2023/01/07 09:05:27;;;;;;;11.65;9.90;;;9.80;99.90;;;;;;6210162;23;20488;-88
2023/01/07 09:07:54;;;;;;;10.98;9.80;;;9.70;99.90;;;;;;6209329;23;20385;-86
2023/01/07 09:10:20;;;;;;;10.70;9.60;;;9.50;99.90;;;;;;6209552;23;20350;-86
2023/01/07 09:12:46;;;;;;;11.43;10.05;;;9.40;99.90;;;;;;6209345;23;20404;-87
2023/01/07 09:15:11;;;;;;;12.03;10.03;;;9.50;99.90;;;;;;6209699;23;20363;-84
2023/01/07 09:17:37;;;;;;;10.07;9.07;;;9.60;99.90;;;;;;6209289;23;20353;-86
2023/01/07 09:20:05;;;;;;;9.90;8.63;;;10.00;99.90;;;;;;6209378;23;20696;-87
2023/01/07 09:22:32;;;;;;;11.60;8.90;;;10.10;99.90;;;;;;6208832;23;20352;-86
2023/01/07 09:24:58;;;;;;;8.40;7.50;;;10.20;99.90;;;;;;6209779;23;20346;-88
2023/01/07 09:27:25;;;;;;;7.83;7.03;;;10.80;99.90;;;;;;6209707;23;20376;-86
2023/01/07 09:29:52;;;;;;;7.60;6.57;;;10.90;99.90;;;;;;6209621;23;20370;-87
2023/01/07 09:32:18;;;;;;;7.45;6.55;;;11.00;99.90;;;;;;6209301;23;20362;-85
2023/01/07 09:34:44;;;;;;;7.15;6.45;;;10.80;99.90;;;;;;6211885;23;20365;-87
2023/01/07 09:37:10;;;;;;;6.97;6.23;;;11.10;99.90;;;;;;6209068;23;20793;-87
2023/01/07 09:39:36;;;;;;;6.90;6.00;;;11.10;99.90;;;;;;6207763;23;20495;-86
2023/01/07 09:42:15;;;;;;;7.10;6.40;;;11.00;99.90;;;;;;6208556;23;20361;-86
2023/01/07 09:45:03;;;;;;;7.20;6.50;;;10.80;99.90;;;;;;6209202;23;20437;-86
2023/01/07 09:47:32;;;;;;;7.32;6.63;;;10.50;99.90;;;;;;6205919;23;20800;-89
2023/01/07 09:50:13;;;;;;;7.40;6.70;;;10.40;99.90;;;;;;6209144;23;20812;-86
2023/01/07 09:52:44;;;;;;;7.80;7.10;;;10.20;99.90;;;;;;6209831;23;20400;-86
2023/01/07 09:55:27;;;;;;;7.53;6.80;;;10.20;99.90;;;;;;6210406;23;20411;-86
2023/01/07 09:57:55;;;;;;;7.78;6.75;;;10.30;99.90;;;;;;6210514;23;20338;-87
2023/01/07 10:00:23;;;;;;;6.77;6.17;;;10.60;99.90;;;;;;6209220;23;20405;-88
2023/01/07 10:03:16;;;;;;;6.50;5.90;;;10.80;99.90;;;;;;6210275;23;20395;-88
2023/01/07 10:06:10;;;;;;;6.65;5.80;;;10.90;99.90;;;;;;6209413;23;20353;-87
2023/01/07 10:09:13;;;;;;;5.72;5.22;;;10.80;99.90;;;;;;6208608;23;20848;-89
2023/01/07 10:11:54;;;;;;;6.57;5.70;;;10.70;99.90;;;;;;6201213;23;20813;-85
2023/01/07 10:14:45;;;;;;;6.55;5.95;;;10.60;99.90;;;;;;6208049;23;20370;-86
2023/01/07 10:17:45;;;;;;;5.97;5.30;;;10.60;99.90;;;;;;6207793;23;20349;-87
2023/01/07 10:20:23;;;;;;;5.80;5.30;;;10.60;99.90;;;;;;6209852;23;20417;-86
2023/01/07 10:23:08;;;;;;;6.43;5.82;;;10.60;99.90;;;;;;6206768;23;20361;-87
2023/01/07 10:25:49;;;;;;;6.75;5.80;;;10.60;99.90;;;;;;6209315;23;20342;-86
2023/01/07 10:28:31;;;;;;;5.90;5.30;;;10.60;99.90;;;;;;6209448;23;20376;-86
2023/01/07 10:30:59;;;;;;;5.40;4.90;;;10.60;99.90;;;;;;6210340;23;20337;-88
2023/01/07 10:33:28;;;;;;;5.43;4.80;;;10.70;99.90;;;;;;6209934;23;20433;-87
2023/01/07 10:36:05;;;;;;;6.13;4.80;;;10.70;99.90;;;;;;6210768;23;20364;-87
2023/01/07 10:38:36;;;;;;;5.90;5.30;;;10.80;99.90;;;;;;6210295;23;20413;-89
2023/01/07 10:41:18;;;;;;;5.82;5.28;;;10.80;99.90;;;;;;6211953;23;20403;-86
2023/01/07 10:44:32;;;;;;;7.50;5.53;;;10.70;99.90;;;;;;6211751;23;20804;-86
2023/01/07 10:47:32;;;;;;;6.32;5.20;;;10.80;99.90;;;;;;6156737;23;20827;-86
2023/01/07 10:50:36;;;;;;;5.88;4.88;;;10.80;99.90;;;;;;6209552;23;20370;-85
2023/01/07 10:53:22;;;;;;;4.90;4.40;;;10.80;99.90;;;;;;6209915;23;20385;-87
2023/01/07 10:56:00;;;;;;;4.73;4.27;;;10.90;99.90;;;;;;6210364;23;20428;-86
2023/01/07 10:58:33;;;;;;;5.47;4.05;;;11.00;99.90;;;;;;6208380;23;20362;-88
2023/01/07 11:00:59;;;;;;;5.35;4.13;;;11.10;99.90;;;;;;6211285;23;20376;-87
2023/01/07 11:03:25;;;;;;;3.90;3.50;;;11.10;99.90;;;;;;6214942;23;20346;-87
2023/01/07 11:05:56;;;;;;;4.45;3.92;;;11.40;99.90;;;;;;6211239;23;20529;-86
2023/01/07 11:08:40;;;;;;;4.30;3.90;;;11.50;99.90;;;;;;6212903;23;20427;-88
2023/01/07 11:11:10;;;;;;;4.20;3.80;;;11.60;99.90;;;;;;6215718;23;20348;-92
2023/01/07 11:13:37;;;;;;;4.25;3.70;;;11.50;99.90;;;;;;6217701;23;20347;-86
2023/01/07 11:16:20;;;;;;;4.90;3.43;;;11.70;99.90;;;;;;6217236;23;20489;-87
2023/01/07 11:19:05;;;;;;;4.35;3.92;;;11.60;99.90;;;;;;6223838;23;20797;-85
2023/01/07 11:21:35;;;;;;;6.43;3.85;;;11.50;99.90;;;;;;6224563;23;20358;-84
2023/01/07 11:24:24;;;;;;;5.88;3.60;;;11.20;99.90;;;;;;6224532;23;20353;-85
2023/01/07 11:26:57;;;;;;;4.20;3.80;;;11.10;99.90;;;;;;6214468;23;20464;-85
2023/01/07 11:29:29;;;;;;;4.30;3.58;;;10.90;99.90;;;;;;6211850;23;20448;-86
2023/01/07 11:32:01;;;;;;;5.90;4.20;;;10.80;99.90;;;;;;6212310;23;20665;-86
2023/01/07 11:35:06;;;;;;;4.05;3.65;;;10.70;99.90;;;;;;6212001;23;20349;-85
2023/01/07 11:37:38;;;;;;;4.35;3.95;;;11.00;99.90;;;;;;6211544;23;20429;-84
2023/01/07 11:40:21;;;;;;;5.57;3.80;;;11.00;99.90;;;;;;6213933;23;20650;-83
2023/01/07 11:43:00;;;;;;;4.57;3.75;;;10.90;99.90;;;;;;6216512;23;20428;-87
2023/01/07 11:45:50;;;;;;;3.35;3.08;;;10.90;99.90;;;;;;6212579;23;20358;-87
2023/01/07 11:48:16;;;;;;;4.03;3.63;;;11.00;99.90;;;;;;6211997;23;20362;-86
2023/01/07 11:50:54;;;;;;;4.65;4.10;;;11.10;99.90;;;;;;6211934;23;20345;-85
2023/01/07 11:53:35;;;;;;;4.13;3.72;;;11.00;99.90;;;;;;6211697;23;20354;-85
2023/01/07 11:56:09;;;;;;;4.03;3.42;;;11.10;99.90;;;;;;6211622;23;20396;-84
2023/01/07 11:58:36;;;;;;;4.60;3.60;;;11.30;99.90;;;;;;6209408;23;20476;-85
2023/01/07 12:01:08;;;;;;;4.18;3.30;;;11.30;99.90;;;;;;6209358;23;20350;-84
2023/01/07 12:04:04;;;;;;;4.38;3.22;;;11.40;99.90;;;;;;6212984;23;20347;-85
2023/01/07 12:06:39;;;;;;;4.65;3.13;;;11.40;99.90;;;;;;6213055;23;20373;-86
2023/01/07 12:09:24;;;;;;;4.15;3.20;;;11.30;99.90;;;;;;6209072;23;20987;-87
2023/01/07 12:11:52;;;;;;;3.25;2.95;;;11.40;99.90;;;;;;6212419;23;20432;-86
2023/01/07 12:14:36;;;;;;;3.65;3.10;;;11.50;99.90;;;;;;6209993;23;20354;-85
2023/01/07 12:17:14;;;;;;;3.10;2.80;;;11.50;99.90;;;;;;6214517;23;20350;-86
2023/01/07 12:20:25;;;;;;;3.90;2.85;;;11.60;99.90;;;;;;6212942;23;20354;-85
2023/01/07 12:23:12;;;;;;;3.42;2.80;;;11.70;99.90;;;;;;6214222;23;20364;-86
2023/01/07 12:25:55;;;;;;;3.20;2.85;;;11.60;99.90;;;;;;6214520;23;20381;-86
2023/01/07 12:28:43;;;;;;;5.20;2.70;;;11.60;99.90;;;;;;6212208;23;20386;-89
2023/01/07 12:31:27;;;;;;;3.33;2.50;;;11.60;99.90;;;;;;6210444;23;20452;-86
2023/01/07 12:34:16;;;;;;;2.55;2.10;;;11.80;99.90;;;;;;6209367;23;20437;-85
2023/01/07 12:36:59;;;;;;;2.20;2.00;;;11.70;99.90;;;;;;6209902;23;20346;-85
2023/01/07 12:39:36;;;;;;;2.70;2.17;;;11.70;99.90;;;;;;6209763;23;20436;-85
2023/01/07 12:42:13;;;;;;;2.22;1.95;;;11.60;99.90;;;;;;6212631;23;20365;-86
2023/01/07 12:44:53;;;;;;;2.35;2.03;;;11.70;99.90;;;;;;6208800;23;20388;-85
2023/01/07 12:47:33;;;;;;;2.85;1.88;;;11.60;99.90;;;;;;6209537;23;21246;-85
2023/01/07 12:50:16;;;;;;;2.65;1.80;;;11.50;99.90;;;;;;6211865;23;20433;-82
2023/01/07 12:53:00;;;;;;;2.10;1.90;;;11.60;99.90;;;;;;6209716;23;20380;-86
2023/01/07 12:55:41;;;;;;;1.80;1.63;;;11.50;99.90;;;;;;6208831;23;20365;-85
2023/01/07 12:58:43;;;;;;;1.80;1.70;;;11.50;99.90;;;;;;6206420;23;20441;-85
2023/01/07 13:01:29;;;;;;;2.13;1.50;;;11.40;99.90;;;;;;6208856;23;20860;-83
2023/01/07 13:04:21;;;;;;;2.50;1.80;;;11.40;99.90;;;;;;6210808;23;20433;-83
2023/01/07 13:07:18;;;;;;;1.45;1.35;;;11.50;99.90;;;;;;6210277;23;20374;-84
2023/01/07 13:09:57;;;;;;;1.70;1.60;;;11.50;99.90;;;;;;6209229;23;20451;-83
2023/01/07 13:12:44;;;;;;;1.40;1.30;;;11.40;99.90;;;;;;6209578;23;20342;-86
2023/01/07 13:15:26;;;;;;;1.65;1.50;;;11.40;99.90;;;;;;6208948;23;20357;-84
2023/01/07 13:17:57;;;;;;;1.70;1.40;;;11.40;99.90;;;;;;6208662;23;20840;-85
2023/01/07 13:20:49;;;;;;;3.77;1.90;;;11.40;99.90;;;;;;6208452;23;20461;-85
2023/01/07 13:23:53;;;;;;;1.92;1.70;;;11.40;99.90;;;;;;6196891;23;20441;-84
2023/01/07 13:26:37;;;;;;;1.90;1.60;;;11.30;99.90;;;;;;6207493;23;20373;-84
2023/01/07 13:29:24;;;;;;;1.70;1.60;;;11.30;99.90;;;;;;6211590;23;20340;-84
2023/01/07 13:32:18;;;;;;;1.80;1.50;;;11.40;99.90;;;;;;6212384;23;20369;-84
2023/01/07 13:34:51;;;;;;;2.03;1.67;;;11.40;99.90;;;;;;6211044;23;20342;-85
2023/01/07 13:37:54;;;;;;;1.60;1.50;;;11.30;99.90;;;;;;6212243;23;20338;-85
2023/01/07 13:40:31;;;;;;;1.75;1.60;;;11.20;99.90;;;;;;6212085;23;20357;-85
2023/01/07 13:43:03;;;;;;;3.95;2.85;;;11.20;99.90;;;;;;6210451;23;20983;-84
2023/01/07 13:45:33;;;;;;;5.50;3.60;;;11.20;99.90;;;;;;6211732;23;20346;-84
2023/01/07 13:48:04;;;;;;;3.20;2.90;;;11.10;99.90;;;;;;6211747;23;20415;-85
2023/01/07 13:50:53;;;;;;;3.20;2.80;;;11.20;99.90;;;;;;6210720;23;20378;-85
2023/01/07 13:53:18;;;;;;;3.50;3.00;;;11.30;99.90;;;;;;6209424;23;20338;-87
2023/01/07 13:55:46;;;;;;;2.40;2.20;;;11.30;99.90;;;;;;6210204;23;20523;-85
2023/01/07 13:58:30;;;;;;;2.97;1.83;;;11.20;99.90;;;;;;6211592;23;20369;-88
2023/01/07 14:01:17;;;;;;;2.13;1.93;;;11.20;99.90;;;;;;6212220;23;20389;-85
2023/01/07 14:03:57;;;;;;;2.88;2.33;;;11.30;99.90;;;;;;6217246;23;20441;-85
2023/01/07 14:06:25;;;;;;;3.38;2.63;;;11.30;99.90;;;;;;6212493;23;20370;-85
2023/01/07 14:08:53;;;;;;;2.87;2.50;;;11.30;99.90;;;;;;6212637;23;20346;-87
2023/01/07 14:11:41;;;;;;;2.58;2.38;;;11.10;99.90;;;;;;6212062;23;20429;-84
2023/01/07 14:14:29;;;;;;;2.53;2.20;;;11.20;99.90;;;;;;6212280;23;20421;-85
2023/01/07 14:17:19;;;;;;;2.55;2.35;;;11.10;99.90;;;;;;6211898;23;20361;-86
2023/01/07 14:20:18;;;;;;;3.28;2.40;;;11.10;99.90;;;;;;6213727;23;20372;-85
2023/01/07 14:23:21;;;;;;;2.67;2.37;;;11.10;99.90;;;;;;6133876;23;20361;-87
2023/01/07 14:26:04;;;;;;;2.95;2.65;;;10.90;99.90;;;;;;6214698;23;20734;-85
2023/01/07 14:29:06;;;;;;;3.40;2.83;;;10.80;99.90;;;;;;6210950;23;20349;-85
2023/01/07 14:31:32;;;;;;;3.00;2.50;;;10.70;99.90;;;;;;6212261;23;20433;-83
2023/01/07 14:34:23;;;;;;;3.13;2.65;;;10.60;99.90;;;;;;6211294;23;20392;-84
2023/01/07 14:37:03;;;;;;;2.75;2.50;;;10.40;99.90;;;;;;6213745;23;20384;-86
2023/01/07 14:39:30;;;;;;;3.03;2.72;;;10.20;99.90;;;;;;6213786;23;20389;-85
2023/01/07 14:42:17;;;;;;;4.13;3.58;;;10.10;99.90;;;;;;6212164;23;20346;-85
2023/01/07 14:44:43;;;;;;;5.75;4.60;;;10.00;99.90;;;;;;6209471;23;20373;-87
2023/01/07 14:47:14;;;;;;;3.90;3.55;;;9.90;99.90;;;;;;6213961;23;20457;-85
2023/01/07 14:50:03;;;;;;;5.20;3.83;;;9.70;99.90;;;;;;6213364;23;20350;-84
2023/01/07 14:52:55;;;;;;;5.43;4.22;;;9.50;99.90;;;;;;6210668;23;20408;-85
2023/01/07 14:55:54;;;;;;;4.80;4.18;;;9.50;99.90;;;;;;6211333;23;20404;-85
2023/01/07 14:58:56;;;;;;;3.67;3.38;;;9.50;99.90;;;;;;6212600;23;20435;-85
2023/01/07 15:01:40;;;;;;;3.97;3.40;;;9.30;99.90;;;;;;6216033;23;20848;-85
2023/01/07 15:04:18;;;;;;;4.03;3.58;;;9.30;99.90;;;;;;6214970;23;20353;-85
2023/01/07 15:06:45;;;;;;;4.25;3.85;;;9.30;99.90;;;;;;6213541;23;20736;-85
2023/01/07 15:18:08;;;;;;;39.03;31.77;;;8.40;99.90;;;;;;6212626;23;20396;-85
2023/01/07 15:21:09;;;;;;;32.57;27.20;;;8.30;99.90;;;;;;6213200;23;20346;-85
2023/01/07 15:23:44;;;;;;;24.08;20.25;;;8.20;99.90;;;;;;6149186;23;20393;-86
2023/01/07 15:26:36;;;;;;;19.83;16.98;;;8.20;99.90;;;;;;6209337;23;20409;-86
2023/01/07 15:29:17;;;;;;;16.73;14.80;;;8.30;99.90;;;;;;6203548;23;20358;-86
2023/01/07 15:32:04;;;;;;;12.63;10.90;;;8.10;99.90;;;;;;6214331;23;20366;-87
2023/01/07 15:34:32;;;;;;;13.90;12.43;;;8.00;99.90;;;;;;6215778;23;20797;-86
2023/01/07 15:36:58;;;;;;;14.60;13.20;;;7.90;99.90;;;;;;6216467;23;20370;-84
2023/01/07 15:39:50;;;;;;;10.45;9.35;;;7.90;99.90;;;;;;6211965;23;20816;-85
2023/01/07 15:42:22;;;;;;;8.52;7.63;;;8.00;99.90;;;;;;6202626;23;20805;-84
2023/01/07 15:44:59;;;;;;;8.90;8.00;;;8.00;99.90;;;;;;6213648;23;20733;-84
2023/01/07 15:47:40;;;;;;;7.43;6.70;;;8.00;99.90;;;;;;6216126;23;20447;-85
2023/01/07 15:50:20;;;;;;;6.93;5.82;;;8.20;99.90;;;;;;6215167;23;20358;-85
2023/01/07 15:52:52;;;;;;;6.10;5.30;;;8.50;99.90;;;;;;6214239;23;20401;-86
2023/01/07 15:55:32;;;;;;;6.32;4.90;;;8.60;99.90;;;;;;6208863;23;20384;-85
2023/01/07 15:58:14;;;;;;;4.10;3.70;;;8.90;99.90;;;;;;6214548;23;20397;-85
2023/01/07 16:00:40;;;;;;;7.57;5.77;;;9.00;99.90;;;;;;6210475;23;20534;-86
2023/01/07 16:03:06;;;;;;;9.50;6.40;;;9.20;99.90;;;;;;6212232;23;20441;-84
2023/01/07 16:05:37;;;;;;;7.35;6.57;;;9.10;99.90;;;;;;6210173;23;20388;-86
2023/01/07 16:08:02;;;;;;;6.35;5.72;;;9.00;99.90;;;;;;6210524;23;20374;-86
2023/01/07 16:10:31;;;;;;;7.22;5.53;;;9.10;99.90;;;;;;6210358;23;21028;-85
2023/01/07 16:13:05;;;;;;;7.05;5.43;;;9.20;99.90;;;;;;6210074;23;20900;-86
2023/01/07 16:15:36;;;;;;;5.68;4.80;;;9.30;99.90;;;;;;6212263;23;20335;-86
2023/01/07 16:18:08;;;;;;;6.75;5.32;;;9.30;99.90;;;;;;6208500;23;20377;-86
2023/01/07 16:20:42;;;;;;;6.80;5.28;;;9.30;99.90;;;;;;6209968;23;20346;-85
2023/01/07 16:23:08;;;;;;;5.20;3.75;;;9.40;99.90;;;;;;6211529;23;20765;-86
2023/01/07 16:25:42;;;;;;;4.40;3.30;;;9.50;99.90;;;;;;6210141;23;20376;-86
2023/01/07 16:28:18;;;;;;;2.87;2.50;;;9.60;99.90;;;;;;6208838;23;20381;-85
2023/01/07 16:30:45;;;;;;;3.80;3.08;;;9.70;99.90;;;;;;6208345;23;20349;-86
2023/01/07 16:33:17;;;;;;;4.23;3.20;;;9.70;99.90;;;;;;6209441;23;20369;-86
2023/01/07 16:35:45;;;;;;;3.10;2.80;;;9.70;99.90;;;;;;6204137;23;20445;-86
2023/01/07 16:38:12;;;;;;;2.95;2.58;;;9.80;99.90;;;;;;6211952;23;20526;-87
2023/01/07 16:40:39;;;;;;;2.90;2.60;;;9.80;99.90;;;;;;6211262;23;20935;-85
2023/01/07 16:43:27;;;;;;;2.28;2.08;;;9.70;99.90;;;;;;6213106;23;20341;-85
2023/01/07 16:46:08;;;;;;;2.47;2.28;;;9.80;99.90;;;;;;6213701;23;20342;-84
2023/01/07 16:48:34;;;;;;;2.90;2.30;;;9.70;99.90;;;;;;6210919;23;20358;-85
2023/01/07 16:51:00;;;;;;;2.65;2.35;;;9.80;99.90;;;;;;6212175;23;20388;-88
2023/01/07 16:53:32;;;;;;;2.60;2.17;;;9.80;99.90;;;;;;6211740;23;20404;-85
2023/01/07 16:56:01;;;;;;;3.63;2.20;;;9.90;99.90;;;;;;6206500;23;20369;-85
2023/01/07 16:58:29;;;;;;;2.43;2.23;;;9.90;99.90;;;;;;6206398;23;20345;-85
2023/01/07 17:00:58;;;;;;;4.55;3.00;;;9.90;99.90;;;;;;6208302;23;20396;-86
2023/01/07 17:03:24;;;;;;;4.45;3.88;;;9.80;99.90;;;;;;6207920;23;20349;-85
2023/01/07 17:06:07;;;;;;;5.05;3.80;;;9.70;99.90;;;;;;6207756;23;20350;-86
2023/01/07 17:08:33;;;;;;;4.15;3.65;;;9.70;99.90;;;;;;6208914;23;20347;-84
2023/01/07 17:11:17;;;;;;;5.43;4.20;;;9.80;99.90;;;;;;6210494;23;20366;-84
2023/01/07 17:13:43;;;;;;;4.28;3.75;;;9.70;99.90;;;;;;6211129;23;20358;-83
2023/01/07 17:16:30;;;;;;;4.67;3.73;;;9.80;99.90;;;;;;6211205;23;20373;-85
2023/01/07 17:19:18;;;;;;;4.47;3.60;;;9.70;99.90;;;;;;6210141;23;20386;-85
2023/01/07 17:21:44;;;;;;;4.85;3.33;;;9.70;99.90;;;;;;6210244;23;20453;-85
2023/01/07 17:24:44;;;;;;;4.30;3.17;;;9.60;99.90;;;;;;6209636;23;20813;-86
2023/01/07 17:27:24;;;;;;;4.85;4.25;;;9.60;99.90;;;;;;6214383;23;20809;-86
2023/01/07 17:29:49;;;;;;;4.30;3.90;;;9.70;99.90;;;;;;6208307;23;20346;-86
2023/01/07 17:32:15;;;;;;;4.03;3.50;;;9.70;99.90;;;;;;6210058;23;20359;-86
2023/01/07 17:34:41;;;;;;;4.00;3.60;;;9.80;99.90;;;;;;6210209;23;20406;-85
2023/01/07 17:37:12;;;;;;;4.70;3.65;;;9.70;99.90;;;;;;6211637;23;20342;-85
2023/01/07 17:39:38;;;;;;;5.07;3.90;;;9.80;99.90;;;;;;6209921;23;20410;-88
2023/01/07 17:45:01;;;;;;;5.68;4.90;;;9.80;99.90;;;;;;6211721;23;20709;-85
2023/01/07 17:47:27;;;;;;;6.73;5.63;;;9.70;99.90;;;;;;6211099;23;20370;-89
2023/01/07 17:49:52;;;;;;;8.57;6.87;;;9.80;99.90;;;;;;6209661;23;20451;-88
2023/01/07 17:52:18;;;;;;;8.03;6.63;;;9.80;99.90;;;;;;6209340;23;20373;-87
2023/01/07 17:54:44;;;;;;;7.28;6.18;;;9.70;99.90;;;;;;6210098;23;20420;-87
2023/01/07 17:57:11;;;;;;;6.30;5.70;;;9.70;99.90;;;;;;6211327;23;20424;-87
2023/01/07 17:59:36;;;;;;;5.05;4.55;;;9.80;99.90;;;;;;6212815;23;20338;-87
2023/01/07 18:02:02;;;;;;;6.47;5.00;;;9.60;99.90;;;;;;6212583;23;20346;-87
2023/01/07 18:04:28;;;;;;;5.68;4.80;;;9.50;99.90;;;;;;6211378;23;20353;-85
2023/01/07 18:06:54;;;;;;;5.18;4.68;;;9.50;99.90;;;;;;6210389;23;20690;-86
2023/01/07 18:09:19;;;;;;;4.83;4.20;;;9.50;99.90;;;;;;6212068;23;20350;-86
2023/01/07 18:14:31;;;;;;;5.53;4.07;;;9.60;99.90;;;;;;6211657;23;20670;-86
2023/01/07 18:16:57;;;;;;;5.60;3.53;;;9.40;99.90;;;;;;6210738;23;20350;-85
2023/01/07 18:19:22;;;;;;;4.53;3.80;;;9.40;99.90;;;;;;6211839;23;20349;-85
2023/01/07 18:21:48;;;;;;;5.50;3.90;;;9.50;99.90;;;;;;6209864;23;20418;-86
2023/01/07 18:24:19;;;;;;;4.47;4.05;;;9.40;99.90;;;;;;6212479;23;20400;-86
2023/01/07 18:26:46;;;;;;;5.13;3.47;;;9.40;99.90;;;;;;6213183;23;20404;-86
2023/01/07 18:29:15;;;;;;;4.35;3.78;;;9.40;99.90;;;;;;6211136;23;20361;-86
2023/01/07 18:31:43;;;;;;;5.07;4.25;;;9.50;99.90;;;;;;6208587;23;21035;-86
2023/01/07 18:34:13;;;;;;;5.55;4.05;;;9.40;99.90;;;;;;6208538;23;20354;-86
2023/01/07 18:36:40;;;;;;;4.00;3.60;;;9.40;99.90;;;;;;6208695;23;20358;-85
2023/01/07 18:39:08;;;;;;;4.28;3.15;;;9.40;99.90;;;;;;6214727;23;20677;-86
2023/01/07 18:41:34;;;;;;;6.70;3.38;;;9.30;99.90;;;;;;6214561;23;20401;-86
2023/01/07 18:44:00;;;;;;;3.30;2.65;;;9.30;99.90;;;;;;6214564;23;20354;-86
2023/01/07 18:46:25;;;;;;;3.27;2.67;;;9.30;99.90;;;;;;6212101;23;20702;-86
2023/01/07 18:48:51;;;;;;;3.23;2.70;;;9.30;99.90;;;;;;6212575;23;20408;-87
2023/01/07 18:51:17;;;;;;;4.20;2.90;;;9.30;99.90;;;;;;6211898;23;20967;-86
2023/01/07 18:53:42;;;;;;;3.60;2.80;;;9.40;99.90;;;;;;6213869;23;20350;-87
2023/01/07 18:56:10;;;;;;;2.80;2.57;;;9.30;99.90;;;;;;6215733;23;20342;-86
2023/01/07 18:58:39;;;;;;;3.75;2.30;;;9.20;99.90;;;;;;6213544;23;21160;-87
2023/01/07 19:01:06;;;;;;;5.75;2.28;;;9.20;99.90;;;;;;6212573;23;20366;-85
2023/01/07 19:03:32;;;;;;;2.65;2.30;;;9.30;99.90;;;;;;6213401;23;20354;-87
2023/01/07 19:05:58;;;;;;;5.00;4.15;;;9.30;99.90;;;;;;6213261;23;20413;-87
2023/01/07 19:08:25;;;;;;;5.22;4.50;;;9.30;99.90;;;;;;6213598;23;20350;-86
2023/01/07 19:10:51;;;;;;;7.25;6.10;;;9.30;99.90;;;;;;6214863;23;20662;-86
2023/01/07 19:13:17;;;;;;;3.72;2.85;;;9.20;99.90;;;;;;6214317;23;20354;-87
2023/01/07 19:15:52;;;;;;;2.85;2.50;;;9.20;99.90;;;;;;6214538;23;20362;-87
2023/01/07 19:18:18;;;;;;;3.28;2.63;;;9.10;99.90;;;;;;6213893;23;20770;-87
2023/01/07 19:20:46;;;;;;;4.18;2.58;;;9.20;99.90;;;;;;6214305;23;20353;-86
2023/01/07 19:23:21;;;;;;;2.90;2.33;;;9.20;99.90;;;;;;6215404;23;20360;-87
2023/01/07 19:25:58;;;;;;;3.67;2.55;;;9.20;99.90;;;;;;6215536;23;20357;-86
2023/01/07 19:28:28;;;;;;;3.10;2.80;;;9.20;99.90;;;;;;6217171;23;20346;-86
2023/01/07 19:30:54;;;;;;;3.15;2.55;;;9.30;99.90;;;;;;6218391;23;20358;-86
2023/01/07 19:33:27;;;;;;;3.85;2.70;;;9.30;99.90;;;;;;6217109;23;20615;-86
2023/01/07 19:36:09;;;;;;;3.20;2.90;;;9.30;99.90;;;;;;6213537;23;20355;-87
2023/01/07 19:38:42;;;;;;;3.88;2.65;;;9.40;99.90;;;;;;6214129;23;20424;-86
2023/01/07 19:41:10;;;;;;;3.13;2.85;;;9.40;99.90;;;;;;6215535;23;20366;-86
2023/01/07 19:43:37;;;;;;;3.25;2.90;;;9.20;99.90;;;;;;6213228;23;20365;-87
2023/01/07 19:46:04;;;;;;;2.93;2.70;;;9.20;99.90;;;;;;6214261;23;20636;-87
2023/01/07 19:48:30;;;;;;;3.00;2.70;;;9.30;99.90;;;;;;6213337;23;20354;-87
2023/01/07 19:50:59;;;;;;;3.30;2.80;;;9.20;99.90;;;;;;6214337;23;20446;-85
2023/01/07 19:53:25;;;;;;;3.20;2.90;;;9.20;99.90;;;;;;6212564;23;20365;-85
2023/01/07 19:55:53;;;;;;;3.88;3.20;;;9.20;99.90;;;;;;6212903;23;20358;-86
2023/01/07 19:58:20;;;;;;;4.10;3.17;;;9.30;99.90;;;;;;6211542;23;20354;-85
2023/01/07 20:00:46;;;;;;;4.40;3.55;;;9.40;99.90;;;;;;6211096;23;20464;-87
2023/01/07 20:03:11;;;;;;;4.22;3.80;;;9.30;99.90;;;;;;6212720;23;20444;-86
2023/01/07 20:05:38;;;;;;;3.95;3.00;;;9.40;99.90;;;;;;6213216;23;20433;-87
2023/01/07 20:08:04;;;;;;;3.42;3.13;;;9.40;99.90;;;;;;6211523;23;20864;-87
2023/01/07 20:10:30;;;;;;;3.80;3.40;;;9.50;99.90;;;;;;6211525;23;20350;-87
2023/01/07 20:12:56;;;;;;;5.88;4.93;;;9.40;99.90;;;;;;6211336;23;20445;-86
2023/01/07 20:15:24;;;;;;;5.63;4.03;;;9.40;99.90;;;;;;6212912;23;20875;-86
2023/01/07 20:17:50;;;;;;;4.33;3.07;;;9.40;99.90;;;;;;6213632;23;20342;-87